| time (UTC) | temp C | wind direction | speed KPH | gust KPH | rain 1hr cm | rain 24hr cm | rain mn cm | humidity % | barometer mb |
| 20260902161436 | 18 | 170 | 0.0 | 0.0 | 0.00 | 0.00 | 0.00 | 62 | 1016.5 |
| 20260902154435 | 18 | 292 | 0.0 | 3.2 | 0.00 | 0.00 | 0.00 | 68 | 1016.9 |
| 20260902151436 | 18 | 277 | 0.0 | 3.2 | 0.00 | 0.00 | 0.00 | 66 | 1016.9 |
| 20260902144436 | 18 | 273 | 0.0 | 4.8 | 0.00 | 0.00 | 0.00 | 67 | 1016.9 |
| 20260902141436 | 18 | 310 | 1.6 | 4.8 | 0.00 | 1.60 | 0.00 | 69 | 1017.2 |
| 20260902134435 | 19 | 131 | 0.0 | 0.0 | 0.00 | 1.60 | 0.00 | 69 | 1017.2 |
| 20260902131435 | 18 | 315 | 0.0 | 1.6 | 0.00 | 1.60 | 0.00 | 72 | 1017.2 |
| 20260902124436 | 17 | 327 | 4.8 | 4.8 | 0.00 | 1.60 | 0.00 | 75 | 1017.2 |
| 20260902121436 | 17 | 315 | 0.0 | 3.2 | 0.00 | 1.60 | 0.00 | 78 | 1017.6 |
| 20260902114436 | 16 | 319 | 1.6 | 3.2 | 0.00 | 1.60 | 0.00 | 79 | 1017.6 |
| 20260902111436 | 16 | 301 | 0.0 | 0.0 | 0.00 | 1.60 | 0.00 | 82 | 1017.2 |
| 20260902104436 | 16 | 272 | 0.0 | 0.0 | 0.00 | 1.60 | 0.00 | 85 | 1017.6 |
| 20260902101436 | 11 | 206 | 0.0 | 0.0 | 0.00 | 1.60 | 0.00 | 99 | 1017.6 |
| 20260902094436 | 11 | 206 | 0.0 | 0.0 | 0.00 | 1.60 | 0.00 | 99 | 1017.6 |
| 20260902091435 | 11 | 206 | 0.0 | 0.0 | 0.00 | 1.60 | 0.00 | 99 | 1017.6 |
| 20260902084435 | 11 | 206 | 0.0 | 0.0 | 0.00 | 1.60 | 0.00 | 99 | 1017.6 |
| 20260902081435 | 11 | 206 | 0.0 | 0.0 | 0.00 | 1.60 | 0.00 | 99 | 1017.6 |
| 20260902074436 | 11 | 206 | 0.0 | 0.0 | 0.00 | 1.60 | 0.00 | 99 | 1017.6 |
| 20260902071435 | 11 | 206 | 0.0 | 0.0 | 0.00 | 1.60 | 0.00 | 99 | 1017.6 |
| 20260902064437 | 11 | 206 | 0.0 | 0.0 | 0.00 | 1.60 | 0.00 | 99 | 1017.6 |
| 20260902061435 | 11 | 206 | 0.0 | 0.0 | 0.00 | 1.60 | 0.00 | 99 | 1017.6 |
| 20260902054436 | 11 | 206 | 0.0 | 0.0 | 0.00 | 1.60 | 0.00 | 99 | 1017.6 |
| 20260902051436 | 11 | 206 | 0.0 | 0.0 | 0.00 | 1.60 | 0.00 | 99 | 1017.6 |
| 20260902044436 | 11 | 206 | 0.0 | 0.0 | 0.00 | 1.60 | 0.00 | 99 | 1017.6 |
| 20260902041436 | 11 | 206 | 0.0 | 0.0 | 0.00 | 1.60 | 0.00 | 99 | 1017.6 |
| 20260902034435 | 11 | 206 | 0.0 | 0.0 | 0.00 | 1.60 | 0.00 | 99 | 1017.6 |
| 20260902031436 | 11 | 183 | 0.0 | 0.0 | 0.00 | 1.60 | 0.00 | 99 | 1017.6 |
| 20260902024436 | 11 | 199 | 0.0 | 0.0 | 0.00 | 1.60 | 0.00 | 99 | 1017.6 |
| 20260902021436 | 11 | 183 | 0.0 | 0.0 | 0.00 | 1.60 | 0.00 | 99 | 1017.6 |
| 20260902014436 | 11 | 177 | 0.0 | 0.0 | 0.00 | 1.60 | 0.00 | 99 | 1017.6 |
| 20260902011436 | 12 | 199 | 0.0 | 0.0 | 0.00 | 1.60 | 0.00 | 99 | 1017.6 |
| 20260902004436 | 12 | 189 | 0.0 | 0.0 | 0.00 | 1.60 | 0.00 | 97 | 1017.2 |
| 20260902001436 | 13 | 157 | 0.0 | 0.0 | 0.00 | 1.60 | 0.00 | 97 | 1017.6 |
| 20260901234435 | 13 | 218 | 0.0 | 0.0 | 0.00 | 1.60 | 0.00 | 97 | 1017.6 |
| 20260901231435 | 13 | 166 | 0.0 | 0.0 | 0.00 | 1.60 | 0.00 | 97 | 1017.9 |
| 20260901224437 | 13 | 220 | 0.0 | 0.0 | 0.00 | 1.60 | 0.00 | 97 | 1017.9 |
| 20260901221436 | 13 | 201 | 0.0 | 0.0 | 0.00 | 1.60 | 0.51 | 96 | 1017.9 |
| 20260901214436 | 13 | 224 | 0.0 | 0.0 | 0.00 | 1.60 | 0.51 | 95 | 1017.9 |
| 20260901211436 | 14 | 171 | 0.0 | 0.0 | 0.00 | 1.60 | 0.51 | 94 | 1017.6 |
| 20260901204436 | 14 | 194 | 0.0 | 0.0 | 0.00 | 1.60 | 0.51 | 94 | 1017.9 |
| 20260901201436 | 14 | 238 | 0.0 | 0.0 | 0.00 | 1.60 | 0.51 | 94 | 1017.6 |
| 20260901193235 | 14 | 249 | 0.0 | 0.0 | 0.00 | 1.60 | 0.51 | 95 | 1017.6 |
| 20260901190236 | 14 | 197 | 0.0 | 0.0 | 0.00 | 1.60 | 0.51 | 95 | 1017.6 |
| 20260901183236 | 15 | 232 | 0.0 | 0.0 | 0.00 | 1.60 | 0.51 | 95 | 1017.2 |
| 20260901180235 | 15 | 216 | 0.0 | 0.0 | 0.00 | 1.60 | 0.51 | 94 | 1016.9 |
| 20260901173235 | 15 | 287 | 0.0 | 0.0 | 0.00 | 1.60 | 0.51 | 92 | 1016.9 |
| 20260901170236 | 15 | 154 | 0.0 | 0.0 | 0.00 | 1.60 | 0.51 | 92 | 1016.9 |
| 20260901163235 | 15 | 215 | 0.0 | 0.0 | 0.00 | 1.60 | 0.51 | 93 | 1016.9 |